sensor_id;sensor_type;location;lat;lon;timestamp;temperature;humidity
66928;DHT22;59882;45.624;11.698;2022-09-03T00:01:21;22.40;61.10
66928;DHT22;59882;45.624;11.698;2022-09-03T00:03:54;22.30;60.80
66928;DHT22;59882;45.624;11.698;2022-09-03T00:06:35;22.20;60.80
66928;DHT22;59882;45.624;11.698;2022-09-03T00:14:31;22.20;61.40
66928;DHT22;59882;45.624;11.698;2022-09-03T00:17:03;22.10;62.00
66928;DHT22;59882;45.624;11.698;2022-09-03T00:19:39;22.10;61.90
66928;DHT22;59882;45.624;11.698;2022-09-03T00:22:10;22.00;62.00
66928;DHT22;59882;45.624;11.698;2022-09-03T00:24:39;22.00;62.10
66928;DHT22;59882;45.624;11.698;2022-09-03T00:27:14;22.00;62.50
66928;DHT22;59882;45.624;11.698;2022-09-03T00:29:49;21.90;62.40
66928;DHT22;59882;45.624;11.698;2022-09-03T00:32:26;21.90;62.60
66928;DHT22;59882;45.624;11.698;2022-09-03T00:34:59;21.90;62.00
66928;DHT22;59882;45.624;11.698;2022-09-03T00:37:27;21.90;62.60
66928;DHT22;59882;45.624;11.698;2022-09-03T00:39:54;21.90;62.30
66928;DHT22;59882;45.624;11.698;2022-09-03T00:42:27;22.00;62.20
66928;DHT22;59882;45.624;11.698;2022-09-03T00:50:28;21.90;62.70
66928;DHT22;59882;45.624;11.698;2022-09-03T00:55:38;21.90;62.70
66928;DHT22;59882;45.624;11.698;2022-09-03T01:00:54;22.00;62.00
66928;DHT22;59882;45.624;11.698;2022-09-03T01:03:48;22.00;62.20
66928;DHT22;59882;45.624;11.698;2022-09-03T01:06:32;22.00;62.40
66928;DHT22;59882;45.624;11.698;2022-09-03T01:12:04;22.20;62.60
66928;DHT22;59882;45.624;11.698;2022-09-03T01:17:45;22.20;62.40
66928;DHT22;59882;45.624;11.698;2022-09-03T01:23:46;22.10;62.40
66928;DHT22;59882;45.624;11.698;2022-09-03T01:26:42;22.10;62.10
66928;DHT22;59882;45.624;11.698;2022-09-03T01:32:01;22.10;62.00
66928;DHT22;59882;45.624;11.698;2022-09-03T01:39:28;22.20;62.00
66928;DHT22;59882;45.624;11.698;2022-09-03T01:44:46;22.10;62.00
66928;DHT22;59882;45.624;11.698;2022-09-03T01:47:51;22.10;61.80
66928;DHT22;59882;45.624;11.698;2022-09-03T01:50:45;22.10;62.10
66928;DHT22;59882;45.624;11.698;2022-09-03T01:58:45;22.10;61.90
66928;DHT22;59882;45.624;11.698;2022-09-03T02:01:27;22.00;62.00
66928;DHT22;59882;45.624;11.698;2022-09-03T02:03:54;22.10;62.10
66928;DHT22;59882;45.624;11.698;2022-09-03T02:06:24;22.10;61.90
66928;DHT22;59882;45.624;11.698;2022-09-03T02:08:51;22.10;62.10
66928;DHT22;59882;45.624;11.698;2022-09-03T02:11:17;22.10;61.90
66928;DHT22;59882;45.624;11.698;2022-09-03T02:13:47;22.00;61.80
66928;DHT22;59882;45.624;11.698;2022-09-03T02:16:26;22.00;61.90
66928;DHT22;59882;45.624;11.698;2022-09-03T02:18:59;22.00;61.80
66928;DHT22;59882;45.624;11.698;2022-09-03T02:21:31;22.00;61.90
66928;DHT22;59882;45.624;11.698;2022-09-03T02:23:58;21.90;61.60
66928;DHT22;59882;45.624;11.698;2022-09-03T02:26:24;21.90;61.80
66928;DHT22;59882;45.624;11.698;2022-09-03T02:28:51;21.90;61.80
66928;DHT22;59882;45.624;11.698;2022-09-03T02:31:17;21.90;61.50
66928;DHT22;59882;45.624;11.698;2022-09-03T02:33:45;21.90;61.40
66928;DHT22;59882;45.624;11.698;2022-09-03T02:36:14;21.90;61.20
66928;DHT22;59882;45.624;11.698;2022-09-03T02:38:41;21.80;61.30
66928;DHT22;59882;45.624;11.698;2022-09-03T02:41:07;21.80;61.10
66928;DHT22;59882;45.624;11.698;2022-09-03T02:46:19;21.80;60.70
66928;DHT22;59882;45.624;11.698;2022-09-03T02:48:45;21.80;60.50
66928;DHT22;59882;45.624;11.698;2022-09-03T02:51:12;21.80;60.70
66928;DHT22;59882;45.624;11.698;2022-09-03T02:53:38;21.70;60.50
66928;DHT22;59882;45.624;11.698;2022-09-03T02:56:04;21.70;60.10
66928;DHT22;59882;45.624;11.698;2022-09-03T02:58:30;21.60;60.10
66928;DHT22;59882;45.624;11.698;2022-09-03T03:00:56;21.70;60.10
66928;DHT22;59882;45.624;11.698;2022-09-03T03:03:22;21.60;59.80
66928;DHT22;59882;45.624;11.698;2022-09-03T03:05:54;21.60;59.70
66928;DHT22;59882;45.624;11.698;2022-09-03T03:08:22;21.60;59.60
66928;DHT22;59882;45.624;11.698;2022-09-03T03:10:51;21.60;59.40
66928;DHT22;59882;45.624;11.698;2022-09-03T03:13:17;21.70;59.10
66928;DHT22;59882;45.624;11.698;2022-09-03T03:15:43;21.60;59.00
66928;DHT22;59882;45.624;11.698;2022-09-03T03:18:10;21.70;58.90
66928;DHT22;59882;45.624;11.698;2022-09-03T03:20:39;21.70;58.80
66928;DHT22;59882;45.624;11.698;2022-09-03T03:23:05;21.70;58.50
66928;DHT22;59882;45.624;11.698;2022-09-03T03:25:32;21.70;58.20
66928;DHT22;59882;45.624;11.698;2022-09-03T03:27:58;21.70;58.20
66928;DHT22;59882;45.624;11.698;2022-09-03T03:30:24;21.70;58.40
66928;DHT22;59882;45.624;11.698;2022-09-03T03:32:52;21.60;59.50
66928;DHT22;59882;45.624;11.698;2022-09-03T03:35:18;21.50;59.70
66928;DHT22;59882;45.624;11.698;2022-09-03T03:37:43;21.40;59.50
66928;DHT22;59882;45.624;11.698;2022-09-03T03:40:09;21.40;60.20
66928;DHT22;59882;45.624;11.698;2022-09-03T03:42:35;21.30;60.90
66928;DHT22;59882;45.624;11.698;2022-09-03T03:45:01;21.30;61.00
66928;DHT22;59882;45.624;11.698;2022-09-03T03:47:30;21.30;61.20
66928;DHT22;59882;45.624;11.698;2022-09-03T03:49:57;21.30;61.60
66928;DHT22;59882;45.624;11.698;2022-09-03T03:52:23;21.20;61.70
66928;DHT22;59882;45.624;11.698;2022-09-03T03:54:49;21.20;61.70
66928;DHT22;59882;45.624;11.698;2022-09-03T03:57:15;21.10;62.20
66928;DHT22;59882;45.624;11.698;2022-09-03T03:59:41;21.10;62.60
66928;DHT22;59882;45.624;11.698;2022-09-03T04:02:07;21.00;62.80
66928;DHT22;59882;45.624;11.698;2022-09-03T04:04:32;20.90;63.60
66928;DHT22;59882;45.624;11.698;2022-09-03T04:06:58;20.90;62.80
66928;DHT22;59882;45.624;11.698;2022-09-03T04:09:24;20.80;64.10
66928;DHT22;59882;45.624;11.698;2022-09-03T04:11:49;20.80;64.30
66928;DHT22;59882;45.624;11.698;2022-09-03T04:14:15;20.80;64.00
66928;DHT22;59882;45.624;11.698;2022-09-03T04:16:42;20.70;64.30
66928;DHT22;59882;45.624;11.698;2022-09-03T04:19:11;20.70;64.20
66928;DHT22;59882;45.624;11.698;2022-09-03T04:21:37;20.80;64.70
66928;DHT22;59882;45.624;11.698;2022-09-03T04:24:04;20.70;64.60
66928;DHT22;59882;45.624;11.698;2022-09-03T04:26:31;20.70;64.90
66928;DHT22;59882;45.624;11.698;2022-09-03T04:28:58;20.70;64.80
66928;DHT22;59882;45.624;11.698;2022-09-03T04:31:25;20.80;64.70
66928;DHT22;59882;45.624;11.698;2022-09-03T04:33:51;20.70;64.60
66928;DHT22;59882;45.624;11.698;2022-09-03T04:36:19;20.70;64.80
66928;DHT22;59882;45.624;11.698;2022-09-03T04:38:47;20.70;65.00
66928;DHT22;59882;45.624;11.698;2022-09-03T04:41:16;20.80;64.90
66928;DHT22;59882;45.624;11.698;2022-09-03T04:43:43;20.80;65.00
66928;DHT22;59882;45.624;11.698;2022-09-03T04:46:10;20.80;64.90
66928;DHT22;59882;45.624;11.698;2022-09-03T04:48:37;20.80;65.00
66928;DHT22;59882;45.624;11.698;2022-09-03T04:51:04;20.90;65.30
66928;DHT22;59882;45.624;11.698;2022-09-03T04:53:32;20.90;65.30
66928;DHT22;59882;45.624;11.698;2022-09-03T04:55:58;20.90;65.40
66928;DHT22;59882;45.624;11.698;2022-09-03T04:58:24;20.90;65.30
66928;DHT22;59882;45.624;11.698;2022-09-03T05:00:49;20.90;65.40
66928;DHT22;59882;45.624;11.698;2022-09-03T05:03:15;20.90;65.40
66928;DHT22;59882;45.624;11.698;2022-09-03T05:05:40;20.90;65.30
66928;DHT22;59882;45.624;11.698;2022-09-03T05:08:06;20.90;65.30
66928;DHT22;59882;45.624;11.698;2022-09-03T05:10:32;21.00;65.60
66928;DHT22;59882;45.624;11.698;2022-09-03T05:13:03;21.00;65.50
66928;DHT22;59882;45.624;11.698;2022-09-03T05:15:30;21.00;65.60
66928;DHT22;59882;45.624;11.698;2022-09-03T05:17:58;21.00;65.70
66928;DHT22;59882;45.624;11.698;2022-09-03T05:20:24;21.10;65.50
66928;DHT22;59882;45.624;11.698;2022-09-03T05:22:50;21.10;65.10
66928;DHT22;59882;45.624;11.698;2022-09-03T05:25:16;21.10;64.80
66928;DHT22;59882;45.624;11.698;2022-09-03T05:27:42;21.10;64.70
66928;DHT22;59882;45.624;11.698;2022-09-03T05:30:08;21.20;64.50
66928;DHT22;59882;45.624;11.698;2022-09-03T05:32:34;21.20;64.40
66928;DHT22;59882;45.624;11.698;2022-09-03T05:34:59;21.30;64.30
66928;DHT22;59882;45.624;11.698;2022-09-03T05:37:25;21.30;64.10
66928;DHT22;59882;45.624;11.698;2022-09-03T05:39:51;21.40;63.80
66928;DHT22;59882;45.624;11.698;2022-09-03T05:42:18;21.40;63.70
66928;DHT22;59882;45.624;11.698;2022-09-03T05:44:43;21.50;62.90
66928;DHT22;59882;45.624;11.698;2022-09-03T05:47:09;21.50;62.90
66928;DHT22;59882;45.624;11.698;2022-09-03T05:49:34;21.60;63.00
66928;DHT22;59882;45.624;11.698;2022-09-03T05:52:01;21.70;63.20
66928;DHT22;59882;45.624;11.698;2022-09-03T05:54:27;21.70;63.30
66928;DHT22;59882;45.624;11.698;2022-09-03T05:56:53;21.80;63.70
66928;DHT22;59882;45.624;11.698;2022-09-03T05:59:19;21.80;63.30
66928;DHT22;59882;45.624;11.698;2022-09-03T06:01:45;21.80;62.70
66928;DHT22;59882;45.624;11.698;2022-09-03T06:04:14;21.80;62.30
66928;DHT22;59882;45.624;11.698;2022-09-03T06:06:45;21.90;62.10
66928;DHT22;59882;45.624;11.698;2022-09-03T06:09:21;21.90;61.90
66928;DHT22;59882;45.624;11.698;2022-09-03T06:11:47;22.00;61.70
66928;DHT22;59882;45.624;11.698;2022-09-03T06:14:14;22.00;61.50
66928;DHT22;59882;45.624;11.698;2022-09-03T06:16:42;22.00;61.30
66928;DHT22;59882;45.624;11.698;2022-09-03T06:19:09;22.10;61.30
66928;DHT22;59882;45.624;11.698;2022-09-03T06:21:40;22.10;61.40
66928;DHT22;59882;45.624;11.698;2022-09-03T06:24:14;22.10;61.10
66928;DHT22;59882;45.624;11.698;2022-09-03T06:26:40;22.20;60.80
66928;DHT22;59882;45.624;11.698;2022-09-03T06:29:06;22.20;61.00
66928;DHT22;59882;45.624;11.698;2022-09-03T06:31:32;22.20;60.90
66928;DHT22;59882;45.624;11.698;2022-09-03T06:33:59;22.30;59.50
66928;DHT22;59882;45.624;11.698;2022-09-03T06:36:25;22.20;59.60
66928;DHT22;59882;45.624;11.698;2022-09-03T06:38:54;22.30;59.10
66928;DHT22;59882;45.624;11.698;2022-09-03T06:41:23;22.40;58.30
66928;DHT22;59882;45.624;11.698;2022-09-03T06:43:53;22.40;58.50
66928;DHT22;59882;45.624;11.698;2022-09-03T06:46:22;22.40;58.40
66928;DHT22;59882;45.624;11.698;2022-09-03T06:48:48;22.40;58.40
66928;DHT22;59882;45.624;11.698;2022-09-03T06:51:26;22.50;58.40
66928;DHT22;59882;45.624;11.698;2022-09-03T06:53:57;22.50;57.50
66928;DHT22;59882;45.624;11.698;2022-09-03T06:56:24;22.50;57.90
66928;DHT22;59882;45.624;11.698;2022-09-03T06:58:57;22.50;57.10
66928;DHT22;59882;45.624;11.698;2022-09-03T07:01:25;22.50;56.40
66928;DHT22;59882;45.624;11.698;2022-09-03T07:03:55;22.50;56.60
66928;DHT22;59882;45.624;11.698;2022-09-03T07:06:23;22.50;55.70
66928;DHT22;59882;45.624;11.698;2022-09-03T07:08:49;22.50;56.10
66928;DHT22;59882;45.624;11.698;2022-09-03T07:11:18;22.50;55.90
66928;DHT22;59882;45.624;11.698;2022-09-03T07:13:46;22.50;56.10
66928;DHT22;59882;45.624;11.698;2022-09-03T07:16:15;22.60;56.40
66928;DHT22;59882;45.624;11.698;2022-09-03T07:18:41;22.60;55.40
66928;DHT22;59882;45.624;11.698;2022-09-03T07:21:13;22.70;55.80
66928;DHT22;59882;45.624;11.698;2022-09-03T07:23:40;22.70;55.30
66928;DHT22;59882;45.624;11.698;2022-09-03T07:26:12;22.70;54.70
66928;DHT22;59882;45.624;11.698;2022-09-03T07:28:39;22.70;54.60
66928;DHT22;59882;45.624;11.698;2022-09-03T07:31:09;22.80;54.70
66928;DHT22;59882;45.624;11.698;2022-09-03T07:33:39;22.80;54.40
66928;DHT22;59882;45.624;11.698;2022-09-03T07:36:13;22.80;54.70
66928;DHT22;59882;45.624;11.698;2022-09-03T07:38:40;22.90;54.70
66928;DHT22;59882;45.624;11.698;2022-09-03T07:41:08;22.90;53.90
66928;DHT22;59882;45.624;11.698;2022-09-03T07:43:36;22.90;54.20
66928;DHT22;59882;45.624;11.698;2022-09-03T07:46:05;22.90;54.10
66928;DHT22;59882;45.624;11.698;2022-09-03T07:48:31;22.90;54.30
66928;DHT22;59882;45.624;11.698;2022-09-03T07:50:58;23.00;53.70
66928;DHT22;59882;45.624;11.698;2022-09-03T07:53:26;23.00;54.20
66928;DHT22;59882;45.624;11.698;2022-09-03T07:55:52;23.10;54.50
66928;DHT22;59882;45.624;11.698;2022-09-03T07:58:18;23.20;54.40
66928;DHT22;59882;45.624;11.698;2022-09-03T08:00:49;23.20;54.30
66928;DHT22;59882;45.624;11.698;2022-09-03T08:03:14;23.20;54.20
66928;DHT22;59882;45.624;11.698;2022-09-03T08:05:41;23.30;54.30
66928;DHT22;59882;45.624;11.698;2022-09-03T08:08:06;23.30;54.10
66928;DHT22;59882;45.624;11.698;2022-09-03T08:10:36;23.40;53.80
66928;DHT22;59882;45.624;11.698;2022-09-03T08:13:03;23.40;53.60
66928;DHT22;59882;45.624;11.698;2022-09-03T08:15:32;23.50;53.90
66928;DHT22;59882;45.624;11.698;2022-09-03T08:17:59;23.50;54.50
66928;DHT22;59882;45.624;11.698;2022-09-03T08:20:25;23.50;55.30
66928;DHT22;59882;45.624;11.698;2022-09-03T08:22:51;23.60;55.40
66928;DHT22;59882;45.624;11.698;2022-09-03T08:25:16;23.70;54.90
66928;DHT22;59882;45.624;11.698;2022-09-03T08:27:42;23.80;55.70
66928;DHT22;59882;45.624;11.698;2022-09-03T08:30:08;23.90;55.30
66928;DHT22;59882;45.624;11.698;2022-09-03T08:32:38;24.00;55.30
66928;DHT22;59882;45.624;11.698;2022-09-03T08:35:05;24.00;55.80
66928;DHT22;59882;45.624;11.698;2022-09-03T08:37:32;24.10;55.50
66928;DHT22;59882;45.624;11.698;2022-09-03T08:39:58;24.20;55.20
66928;DHT22;59882;45.624;11.698;2022-09-03T08:42:38;24.20;54.90
66928;DHT22;59882;45.624;11.698;2022-09-03T08:45:09;24.20;55.30
66928;DHT22;59882;45.624;11.698;2022-09-03T08:47:45;24.30;55.90
66928;DHT22;59882;45.624;11.698;2022-09-03T08:50:25;24.30;55.40
66928;DHT22;59882;45.624;11.698;2022-09-03T08:53:06;24.40;55.30
66928;DHT22;59882;45.624;11.698;2022-09-03T08:58:20;24.70;55.40
66928;DHT22;59882;45.624;11.698;2022-09-03T09:14:19;25.20;54.20
66928;DHT22;59882;45.624;11.698;2022-09-03T09:16:59;25.20;53.60
66928;DHT22;59882;45.624;11.698;2022-09-03T09:19:49;25.20;53.50
66928;DHT22;59882;45.624;11.698;2022-09-03T09:22:39;25.20;53.10
66928;DHT22;59882;45.624;11.698;2022-09-03T09:25:13;25.30;52.60
66928;DHT22;59882;45.624;11.698;2022-09-03T09:28:03;25.30;53.50
66928;DHT22;59882;45.624;11.698;2022-09-03T09:30:32;25.40;53.70
66928;DHT22;59882;45.624;11.698;2022-09-03T09:32:58;25.40;53.30
66928;DHT22;59882;45.624;11.698;2022-09-03T09:35:25;25.40;52.40
66928;DHT22;59882;45.624;11.698;2022-09-03T09:37:56;25.40;52.40
66928;DHT22;59882;45.624;11.698;2022-09-03T09:40:32;25.40;52.80
66928;DHT22;59882;45.624;11.698;2022-09-03T09:43:16;25.40;53.20
66928;DHT22;59882;45.624;11.698;2022-09-03T09:45:47;25.50;53.70
66928;DHT22;59882;45.624;11.698;2022-09-03T09:48:36;25.60;53.40
66928;DHT22;59882;45.624;11.698;2022-09-03T09:51:11;25.70;52.90
66928;DHT22;59882;45.624;11.698;2022-09-03T09:53:38;25.70;52.50
66928;DHT22;59882;45.624;11.698;2022-09-03T09:56:04;25.80;52.20
66928;DHT22;59882;45.624;11.698;2022-09-03T09:58:31;25.90;52.80
66928;DHT22;59882;45.624;11.698;2022-09-03T10:01:10;25.90;52.90
66928;DHT22;59882;45.624;11.698;2022-09-03T10:03:52;26.10;52.30
66928;DHT22;59882;45.624;11.698;2022-09-03T10:06:29;26.20;51.50
66928;DHT22;59882;45.624;11.698;2022-09-03T10:09:16;26.30;51.60
66928;DHT22;59882;45.624;11.698;2022-09-03T10:11:58;26.40;52.30
66928;DHT22;59882;45.624;11.698;2022-09-03T10:15:07;26.40;49.40
66928;DHT22;59882;45.624;11.698;2022-09-03T10:17:39;26.40;48.70
66928;DHT22;59882;45.624;11.698;2022-09-03T10:20:14;26.40;49.30
66928;DHT22;59882;45.624;11.698;2022-09-03T10:25:25;26.40;49.10
66928;DHT22;59882;45.624;11.698;2022-09-03T10:27:52;26.40;48.70
66928;DHT22;59882;45.624;11.698;2022-09-03T10:30:19;26.50;48.80
66928;DHT22;59882;45.624;11.698;2022-09-03T10:32:59;26.50;46.70
66928;DHT22;59882;45.624;11.698;2022-09-03T10:35:38;26.50;47.70
66928;DHT22;59882;45.624;11.698;2022-09-03T10:38:13;26.50;47.30
66928;DHT22;59882;45.624;11.698;2022-09-03T10:46:16;26.60;48.30
66928;DHT22;59882;45.624;11.698;2022-09-03T10:49:17;26.70;47.60
66928;DHT22;59882;45.624;11.698;2022-09-03T10:52:05;26.80;45.90
66928;DHT22;59882;45.624;11.698;2022-09-03T10:54:40;26.80;44.90
66928;DHT22;59882;45.624;11.698;2022-09-03T10:57:44;26.80;44.70
66928;DHT22;59882;45.624;11.698;2022-09-03T11:00:14;26.80;46.40
66928;DHT22;59882;45.624;11.698;2022-09-03T11:03:09;26.90;45.60
66928;DHT22;59882;45.624;11.698;2022-09-03T11:06:06;26.90;44.70
66928;DHT22;59882;45.624;11.698;2022-09-03T11:08:43;26.90;47.10
66928;DHT22;59882;45.624;11.698;2022-09-03T11:11:15;26.90;46.90
66928;DHT22;59882;45.624;11.698;2022-09-03T11:13:48;26.90;47.10
66928;DHT22;59882;45.624;11.698;2022-09-03T11:16:19;27.00;47.90
66928;DHT22;59882;45.624;11.698;2022-09-03T11:18:49;27.00;47.20
66928;DHT22;59882;45.624;11.698;2022-09-03T11:21:20;27.10;46.20
66928;DHT22;59882;45.624;11.698;2022-09-03T11:23:56;27.20;46.90
66928;DHT22;59882;45.624;11.698;2022-09-03T11:26:26;27.30;46.90
66928;DHT22;59882;45.624;11.698;2022-09-03T11:29:30;27.30;45.60
66928;DHT22;59882;45.624;11.698;2022-09-03T11:32:04;27.40;44.40
66928;DHT22;59882;45.624;11.698;2022-09-03T11:34:49;27.40;44.60
66928;DHT22;59882;45.624;11.698;2022-09-03T11:39:51;27.40;44.60
66928;DHT22;59882;45.624;11.698;2022-09-03T11:42:33;27.40;45.40
66928;DHT22;59882;45.624;11.698;2022-09-03T11:45:13;27.40;47.00
66928;DHT22;59882;45.624;11.698;2022-09-03T11:47:45;27.50;45.30
66928;DHT22;59882;45.624;11.698;2022-09-03T11:53:08;27.80;44.00
66928;DHT22;59882;45.624;11.698;2022-09-03T11:55:53;27.70;43.60
66928;DHT22;59882;45.624;11.698;2022-09-03T11:58:29;27.80;42.40
66928;DHT22;59882;45.624;11.698;2022-09-03T12:00:57;27.90;42.40
66928;DHT22;59882;45.624;11.698;2022-09-03T12:03:28;28.00;43.70
66928;DHT22;59882;45.624;11.698;2022-09-03T12:19:52;29.00;40.30
66928;DHT22;59882;45.624;11.698;2022-09-03T12:22:21;29.20;42.10
66928;DHT22;59882;45.624;11.698;2022-09-03T12:24:47;29.50;41.00
66928;DHT22;59882;45.624;11.698;2022-09-03T12:27:25;29.80;40.90
66928;DHT22;59882;45.624;11.698;2022-09-03T12:29:59;30.00;39.30
66928;DHT22;59882;45.624;11.698;2022-09-03T12:32:30;30.20;38.50
66928;DHT22;59882;45.624;11.698;2022-09-03T12:34:57;30.50;37.80
66928;DHT22;59882;45.624;11.698;2022-09-03T12:37:32;30.60;37.70
66928;DHT22;59882;45.624;11.698;2022-09-03T12:39:57;30.60;37.10
66928;DHT22;59882;45.624;11.698;2022-09-03T12:42:28;30.60;37.10
66928;DHT22;59882;45.624;11.698;2022-09-03T12:45:04;30.80;37.50
66928;DHT22;59882;45.624;11.698;2022-09-03T12:47:29;31.70;37.50
66928;DHT22;59882;45.624;11.698;2022-09-03T12:50:25;33.20;34.30
66928;DHT22;59882;45.624;11.698;2022-09-03T13:00:37;38.70;27.00
66928;DHT22;59882;45.624;11.698;2022-09-03T13:03:20;39.70;26.00
66928;DHT22;59882;45.624;11.698;2022-09-03T13:05:51;40.60;25.80
66928;DHT22;59882;45.624;11.698;2022-09-03T13:08:25;41.50;25.50
66928;DHT22;59882;45.624;11.698;2022-09-03T13:10:58;42.20;22.60
66928;DHT22;59882;45.624;11.698;2022-09-03T13:13:29;42.50;24.30
66928;DHT22;59882;45.624;11.698;2022-09-03T13:26:37;42.00;22.80
66928;DHT22;59882;45.624;11.698;2022-09-03T13:34:24;38.50;26.30
66928;DHT22;59882;45.624;11.698;2022-09-03T13:40:00;36.70;28.00
66928;DHT22;59882;45.624;11.698;2022-09-03T13:42:35;36.00;29.00
66928;DHT22;59882;45.624;11.698;2022-09-03T13:45:20;35.50;29.50
66928;DHT22;59882;45.624;11.698;2022-09-03T13:48:00;34.90;30.10
66928;DHT22;59882;45.624;11.698;2022-09-03T13:51:17;34.00;31.30
66928;DHT22;59882;45.624;11.698;2022-09-03T13:59:12;34.80;33.00
66928;DHT22;59882;45.624;11.698;2022-09-03T14:13:37;35.70;32.50
66928;DHT22;59882;45.624;11.698;2022-09-03T14:21:28;37.90;29.60
66928;DHT22;59882;45.624;11.698;2022-09-03T14:24:03;38.10;29.50
66928;DHT22;59882;45.624;11.698;2022-09-03T14:26:33;38.20;28.90
66928;DHT22;59882;45.624;11.698;2022-09-03T14:29:03;38.00;28.80
66928;DHT22;59882;45.624;11.698;2022-09-03T14:43:13;37.40;29.80
66928;DHT22;59882;45.624;11.698;2022-09-03T14:46:14;37.20;30.00
66928;DHT22;59882;45.624;11.698;2022-09-03T15:05:26;34.00;33.90
66928;DHT22;59882;45.624;11.698;2022-09-03T15:08:08;33.90;35.10
66928;DHT22;59882;45.624;11.698;2022-09-03T15:10:44;33.70;36.60
66928;DHT22;59882;45.624;11.698;2022-09-03T15:13:13;33.60;36.90
66928;DHT22;59882;45.624;11.698;2022-09-03T15:21:19;33.50;37.40
66928;DHT22;59882;45.624;11.698;2022-09-03T15:32:16;33.00;39.10
66928;DHT22;59882;45.624;11.698;2022-09-03T15:34:58;32.80;40.70
66928;DHT22;59882;45.624;11.698;2022-09-03T15:37:33;33.00;39.90
66928;DHT22;59882;45.624;11.698;2022-09-03T15:42:45;33.20;39.60
66928;DHT22;59882;45.624;11.698;2022-09-03T15:45:27;33.10;39.60
66928;DHT22;59882;45.624;11.698;2022-09-03T15:47:55;33.10;39.50
66928;DHT22;59882;45.624;11.698;2022-09-03T15:50:33;33.00;39.50
66928;DHT22;59882;45.624;11.698;2022-09-03T15:56:16;32.80;39.50
66928;DHT22;59882;45.624;11.698;2022-09-03T15:58:59;32.80;39.70
66928;DHT22;59882;45.624;11.698;2022-09-03T16:01:55;32.90;39.50
66928;DHT22;59882;45.624;11.698;2022-09-03T16:07:03;33.10;38.60
66928;DHT22;59882;45.624;11.698;2022-09-03T16:14:45;32.70;40.20
66928;DHT22;59882;45.624;11.698;2022-09-03T16:22:53;32.50;40.20
66928;DHT22;59882;45.624;11.698;2022-09-03T16:25:24;32.50;40.40
66928;DHT22;59882;45.624;11.698;2022-09-03T16:28:12;32.50;39.90
66928;DHT22;59882;45.624;11.698;2022-09-03T16:38:58;32.00;41.00
66928;DHT22;59882;45.624;11.698;2022-09-03T16:44:43;31.60;41.30
66928;DHT22;59882;45.624;11.698;2022-09-03T16:50:29;30.90;42.10
66928;DHT22;59882;45.624;11.698;2022-09-03T17:06:58;29.50;45.70
66928;DHT22;59882;45.624;11.698;2022-09-03T17:17:45;28.70;47.60
66928;DHT22;59882;45.624;11.698;2022-09-03T17:20:41;28.60;47.10
66928;DHT22;59882;45.624;11.698;2022-09-03T17:26:08;28.30;49.20
66928;DHT22;59882;45.624;11.698;2022-09-03T17:36:38;27.70;50.50
66928;DHT22;59882;45.624;11.698;2022-09-03T17:42:05;27.50;51.90
66928;DHT22;59882;45.624;11.698;2022-09-03T17:45:24;27.40;51.80
66928;DHT22;59882;45.624;11.698;2022-09-03T17:50:33;27.20;52.30
66928;DHT22;59882;45.624;11.698;2022-09-03T17:53:22;27.10;52.30
66928;DHT22;59882;45.624;11.698;2022-09-03T17:56:00;27.00;52.90
66928;DHT22;59882;45.624;11.698;2022-09-03T17:58:31;26.90;53.10
66928;DHT22;59882;45.624;11.698;2022-09-03T18:01:15;26.90;53.50
66928;DHT22;59882;45.624;11.698;2022-09-03T18:03:59;26.80;53.50
66928;DHT22;59882;45.624;11.698;2022-09-03T18:06:36;26.70;53.40
66928;DHT22;59882;45.624;11.698;2022-09-03T18:09:23;26.60;53.20
66928;DHT22;59882;45.624;11.698;2022-09-03T18:12:05;26.60;53.30
66928;DHT22;59882;45.624;11.698;2022-09-03T18:17:22;26.50;53.90
66928;DHT22;59882;45.624;11.698;2022-09-03T18:20:02;26.40;54.00
66928;DHT22;59882;45.624;11.698;2022-09-03T18:25:49;26.30;54.60
66928;DHT22;59882;45.624;11.698;2022-09-03T18:29:04;26.20;54.50
66928;DHT22;59882;45.624;11.698;2022-09-03T18:31:49;26.20;54.90
66928;DHT22;59882;45.624;11.698;2022-09-03T18:34:38;26.10;54.90
66928;DHT22;59882;45.624;11.698;2022-09-03T18:37:42;26.10;54.70
66928;DHT22;59882;45.624;11.698;2022-09-03T18:40:35;26.00;55.10
66928;DHT22;59882;45.624;11.698;2022-09-03T18:43:37;26.00;55.00
66928;DHT22;59882;45.624;11.698;2022-09-03T18:49:57;26.00;54.80
66928;DHT22;59882;45.624;11.698;2022-09-03T18:52:58;25.90;54.70
66928;DHT22;59882;45.624;11.698;2022-09-03T19:01:38;25.90;54.80
66928;DHT22;59882;45.624;11.698;2022-09-03T19:13:36;25.70;55.30
66928;DHT22;59882;45.624;11.698;2022-09-03T19:22:36;25.50;56.20
66928;DHT22;59882;45.624;11.698;2022-09-03T19:25:21;25.50;56.20
66928;DHT22;59882;45.624;11.698;2022-09-03T19:37:34;25.40;56.80
66928;DHT22;59882;45.624;11.698;2022-09-03T19:40:56;25.40;56.80
66928;DHT22;59882;45.624;11.698;2022-09-03T19:46:55;25.30;57.20
66928;DHT22;59882;45.624;11.698;2022-09-03T19:50:03;25.30;57.10
66928;DHT22;59882;45.624;11.698;2022-09-03T19:52:59;25.30;57.20
66928;DHT22;59882;45.624;11.698;2022-09-03T19:55:47;25.20;57.50
66928;DHT22;59882;45.624;11.698;2022-09-03T19:58:34;25.20;57.70
66928;DHT22;59882;45.624;11.698;2022-09-03T20:01:19;25.20;57.50
66928;DHT22;59882;45.624;11.698;2022-09-03T20:04:14;25.10;57.50
66928;DHT22;59882;45.624;11.698;2022-09-03T20:07:02;25.10;58.10
66928;DHT22;59882;45.624;11.698;2022-09-03T20:09:47;25.00;58.10
66928;DHT22;59882;45.624;11.698;2022-09-03T20:12:36;25.00;58.80
66928;DHT22;59882;45.624;11.698;2022-09-03T20:15:04;24.90;58.70
66928;DHT22;59882;45.624;11.698;2022-09-03T20:18:04;24.90;58.20
66928;DHT22;59882;45.624;11.698;2022-09-03T20:26:26;24.80;58.70
66928;DHT22;59882;45.624;11.698;2022-09-03T20:37:39;24.70;59.40
66928;DHT22;59882;45.624;11.698;2022-09-03T20:40:11;24.60;59.60
66928;DHT22;59882;45.624;11.698;2022-09-03T20:46:07;24.60;60.20
66928;DHT22;59882;45.624;11.698;2022-09-03T20:51:12;24.60;60.20
66928;DHT22;59882;45.624;11.698;2022-09-03T20:56:32;24.50;60.80
66928;DHT22;59882;45.624;11.698;2022-09-03T20:59:10;24.50;60.70
66928;DHT22;59882;45.624;11.698;2022-09-03T21:02:27;24.40;62.10
66928;DHT22;59882;45.624;11.698;2022-09-03T21:13:15;24.20;63.00
66928;DHT22;59882;45.624;11.698;2022-09-03T21:16:12;24.20;62.90
66928;DHT22;59882;45.624;11.698;2022-09-03T21:18:52;24.20;63.40
66928;DHT22;59882;45.624;11.698;2022-09-03T21:24:07;24.10;63.70
66928;DHT22;59882;45.624;11.698;2022-09-03T21:26:39;24.00;63.50